RAAF Base Richmond
YSRI : now visible

Airfield :











YOU CAN JOIN US ON...

 
LOGIN :

Register | Disclaimer

   EN    FR    IT 

 









Legend :    VFR   Marginal VFR   IFR   Intensive IFR   Very Intensive IFR
Visi :
Ceiling :
>= 8 km
>= 3000ft
5 to 8 km
1000 to 3000 ft
1500m to 5 km
500 to 1000 ft
800 to 1500m
200 to 500 ft
< 800m
< 200 ft
Symbols :   Thunderstorms  Fog  Heavy snow  Heavy precipitations  Wind > 20 kt






- Airport Elevation : 67 ft


YSRI - RAAF Base Richmond

CURRENT METAR :
  • 101300Z AUTO 11003KT 9999 // NCD 14/13 Q1010

EXPIRED METARs :
  • 101230Z AUTO 35003KT 9999 // NCD 14/14 Q1011 RF00.0/002.6
  • 101227Z AUTO 34001KT 9999 // NCD 14/13 Q1011
  • 101200Z AUTO 00000KT 1200 // NCD 14/13 Q1011 RF00/0/002/6
  • 101131Z AUTO 00000KT 3800 // NCD 14/14 Q1012 RF00/0/002/6
  • 101100Z AUTO 33002KT 9999 // SCT110 15/15 Q1012
  • 101030Z AUTO 00000KT 9999 // OVC110 16/15 Q1012 RF00.0/002.6

TAF TAF YSRI
Valid from the 10 at 12:00 until the 11 at 12:00 UTC


101103Z 1012/1112 VRB03KT CAVOK
FM102300 29013KT CAVOK
FM110200 27020G30KT CAVOK
PROB30 1012/1022 0500 FG BKN003



MET'MAP, your aeronautical weather chart ! - Copyright ORBIFLY December 2007 - Disclaimer

ORBIFLY MET'MAP TEAM :

Programming & Development : Alexandra Zaïnal
Concept & original design : Baudouin d'Aumeries
Assistance for programming : Marc-Olivier Méhu
Technical & hardware support : Manuel Goepfert

Contact : metmap@orbifly.com




SOURCES & CREDITS :

   NOAA       Earth
Advisory